YRNW weather

Ringwood Airport
Northern Territory, Australia

Public forecast

Using degrees Celsius for public forecast. Weather courtesy of forecast.io.

Closest aviation weather report (METAR) to Ringwood Airport

Closest report is Alice Springs Airport, 58.2 nm (107.9 km) W. Retrieved 2020/04/08 05:30 UTC (23 minutes ago):

YBAS 080530Z AUTO 14014KT 090V150 9999 // OVC105 24/05 Q1017

Closest aviation forecast (TAF) to Ringwood Airport

Closest forecast is Alice Springs Airport, 58.2 nm (107.9 km) W. Retrieved 2020-04-08 00:00 UTC (6 hours ago):

TAF YBAS 072320Z 0800/0900 10010KT CAVOK FM081600 30005KT CAVOK